Time;durP1;ratioP1;P1;durP2;ratioP2;P2;SDS_P1;SDS_P2;PMS_P1;PMS_P2;Temp;Humidity;BMP_temperature;BMP_pressure;BME280_temperature;BME280_humidity;BME280_pressure;Samples;Min_cycle;Max_cycle;Signal;HPM_P1;HPM_P2
2022/09/16 00:01:20;;;;;;;7.70;2.20;;;;;;;21.95;47.92;94147.19;4211218;28;20081;-63
2022/09/16 00:03:21;;;;;;;14.15;3.08;;;;;;;22.06;48.02;94139.06;4201794;28;20036;-64
2022/09/16 00:05:24;;;;;;;8.50;2.72;;;;;;;22.14;48.26;94135.19;4195083;28;20136;-65
2022/09/16 00:07:25;;;;;;;12.57;2.78;;;;;;;22.21;48.54;94138.50;4195502;28;20056;-65
2022/09/16 00:09:27;;;;;;;9.05;3.10;;;;;;;22.24;47.79;94134.56;4195339;28;20084;-64
2022/09/16 00:11:33;;;;;;;6.50;2.90;;;;;;;22.31;48.13;94129.06;4194830;28;20424;-64
2022/09/16 00:13:34;;;;;;;6.75;2.40;;;;;;;22.32;48.03;94144.81;4209483;28;20504;-65
2022/09/16 00:15:36;;;;;;;11.98;2.97;;;;;;;21.98;48.51;94144.00;4195508;28;20053;-65
2022/09/16 00:17:38;;;;;;;8.55;3.05;;;;;;;22.01;48.45;94157.69;4195488;28;20048;-65
2022/09/16 00:19:40;;;;;;;12.88;3.20;;;;;;;22.11;47.96;94153.53;4195149;28;20135;-64
2022/09/16 00:21:41;;;;;;;5.78;2.67;;;;;;;22.18;48.04;94162.22;4210357;28;20111;-66
2022/09/16 00:23:43;;;;;;;11.43;2.65;;;;;;;22.25;47.66;94160.19;4210349;28;20678;-60
2022/09/16 00:25:54;;;;;;;6.78;2.80;;;;;;;22.32;47.92;94160.03;4193744;28;20127;-59
2022/09/16 00:27:56;;;;;;;8.07;2.45;;;;;;;22.37;48.08;94152.91;4195102;28;20630;-58
2022/09/16 00:29:58;;;;;;;7.80;3.13;;;;;;;22.41;48.06;94135.34;4195301;28;20878;-59
2022/09/16 00:32:00;;;;;;;8.65;3.15;;;;;;;22.43;48.12;94137.75;4195240;28;20113;-59
2022/09/16 00:34:01;;;;;;;8.52;3.20;;;;;;;22.44;48.09;94134.84;4205090;28;20052;-58
2022/09/16 00:36:09;;;;;;;6.35;2.88;;;;;;;22.45;47.86;94136.44;4208784;28;20101;-64
2022/09/16 00:38:11;;;;;;;8.38;2.63;;;;;;;22.47;47.47;94134.34;4211016;28;20051;-63
2022/09/16 00:40:13;;;;;;;9.73;2.83;;;;;;;22.39;47.97;94128.63;4207409;28;20134;-60
2022/09/16 00:42:16;;;;;;;7.20;2.72;;;;;;;22.37;47.84;94141.41;4211548;28;20105;-59
2022/09/16 00:44:49;;;;;;;12.35;3.13;;;;;;;22.34;48.10;94144.59;4211036;28;20095;-61
2022/09/16 00:46:51;;;;;;;6.93;2.60;;;;;;;22.26;48.15;94148.47;4211203;28;20052;-64
2022/09/16 00:48:52;;;;;;;11.93;2.95;;;;;;;22.23;48.29;94136.44;4210173;28;20052;-60
2022/09/16 00:50:59;;;;;;;7.68;2.33;;;;;;;22.23;48.31;94128.41;4211138;28;20040;-63
2022/09/16 00:53:01;;;;;;;4.72;2.90;;;;;;;22.16;48.48;94134.97;4208608;28;20040;-65
2022/09/16 00:55:06;;;;;;;8.35;2.72;;;;;;;22.11;48.81;94142.88;4207161;28;20076;-62
2022/09/16 00:57:09;;;;;;;6.10;2.78;;;;;;;22.12;49.00;94141.84;4211356;28;20504;-62
2022/09/16 00:59:18;;;;;;;8.27;2.42;;;;;;;22.17;48.71;94158.72;4209686;28;20101;-64
2022/09/16 01:01:20;;;;;;;7.70;2.60;;;;;;;22.16;48.65;94159.78;4194737;28;20477;-67
2022/09/16 01:03:24;;;;;;;8.90;2.80;;;;;;;22.18;48.47;94146.19;4195059;28;20102;-64
2022/09/16 01:05:26;;;;;;;7.63;2.63;;;;;;;22.22;48.73;94157.97;4206876;28;20087;-66
2022/09/16 01:07:31;;;;;;;6.95;2.55;;;;;;;22.23;48.58;94154.28;4223215;28;20100;-67
2022/09/16 01:09:33;;;;;;;6.05;2.63;;;;;;;22.21;48.42;94151.03;4202973;28;20508;-64
2022/09/16 01:11:35;;;;;;;12.10;3.10;;;;;;;22.24;48.42;94150.56;4193680;28;20103;-66
2022/09/16 01:13:37;;;;;;;10.60;2.75;;;;;;;22.26;48.50;94151.97;4205092;28;20048;-68
2022/09/16 01:15:42;;;;;;;13.57;2.88;;;;;;;22.25;48.39;94161.00;4204655;28;20480;-65
2022/09/16 01:18:01;;;;;;;6.65;2.33;;;;;;;22.24;48.49;94159.41;4198250;28;20076;-69
2022/09/16 01:20:06;;;;;;;6.07;2.60;;;;;;;22.13;49.32;94160.25;4203597;28;20568;-68
2022/09/16 01:22:26;;;;;;;5.20;2.33;;;;;;;21.99;48.96;94154.44;4204107;28;20098;-69
2022/09/16 01:25:03;;;;;;;7.93;2.67;;;;;;;21.92;49.20;94160.97;4213381;28;20039;-69
2022/09/16 01:27:07;;;;;;;12.07;2.92;;;;;;;21.91;49.28;94160.19;4203034;28;20132;-67
2022/09/16 01:29:30;;;;;;;13.23;3.17;;;;;;;21.85;49.61;94155.81;4212495;28;20124;-64
2022/09/16 01:31:56;;;;;;;10.95;3.20;;;;;;;21.82;49.77;94158.97;4205647;28;20180;-69
2022/09/16 01:34:11;;;;;;;11.20;2.78;;;;;;;21.81;49.61;94155.50;4187842;28;20500;-67
2022/09/16 01:36:29;;;;;;;13.20;3.08;;;;;;;21.85;49.59;94159.31;4198799;28;20105;-67
2022/09/16 01:38:54;;;;;;;6.57;2.55;;;;;;;21.88;49.54;94148.16;4204141;28;20086;-69
2022/09/16 01:41:15;;;;;;;6.70;2.42;;;;;;;21.94;49.39;94146.38;4216401;28;20138;-69
2022/09/16 01:43:20;;;;;;;9.13;2.60;;;;;;;22.00;49.51;94148.03;4213128;28;20447;-67
2022/09/16 01:45:40;;;;;;;13.70;3.00;;;;;;;22.03;49.52;94142.25;4202865;28;20136;-70
2022/09/16 01:47:56;;;;;;;11.68;2.45;;;;;;;22.01;49.41;94139.00;4202384;28;20515;-66
2022/09/16 01:50:07;;;;;;;7.22;2.63;;;;;;;21.91;49.68;94146.03;4198035;28;20130;-65
2022/09/16 01:52:31;;;;;;;11.48;2.35;;;;;;;21.84;49.81;94147.00;4209108;28;20056;-65
2022/09/16 01:54:46;;;;;;;8.00;3.13;;;;;;;21.59;50.79;94136.72;4210499;28;20640;-65
2022/09/16 01:57:10;;;;;;;6.05;2.17;;;;;;;21.56;50.50;94137.22;4213481;28;20625;-63
2022/09/16 01:59:27;;;;;;;7.10;2.78;;;;;;;21.59;50.31;94134.06;4207158;28;20084;-65
2022/09/16 02:01:41;;;;;;;7.85;2.55;;;;;;;21.67;50.30;94139.00;4211699;28;20050;-65
2022/09/16 02:03:47;;;;;;;9.70;2.72;;;;;;;21.71;50.12;94127.88;4222003;28;20126;-65
2022/09/16 02:06:19;;;;;;;10.15;2.17;;;;;;;21.67;50.36;94133.69;4205727;28;20136;-64
2022/09/16 02:08:38;;;;;;;6.88;2.55;;;;;;;21.62;50.26;94143.47;4185987;28;20083;-63
2022/09/16 02:10:44;;;;;;;6.88;2.40;;;;;;;21.62;50.14;94135.47;4204618;28;20056;-63
2022/09/16 02:12:47;;;;;;;5.32;2.13;;;;;;;21.63;50.03;94132.53;4200645;28;20040;-65
2022/09/16 02:14:51;;;;;;;9.07;2.15;;;;;;;21.62;50.20;94132.81;4209031;28;20131;-65
2022/09/16 02:16:59;;;;;;;10.25;2.78;;;;;;;21.42;50.73;94120.75;4197111;28;20084;-65
2022/09/16 02:19:05;;;;;;;8.25;2.53;;;;;;;21.34;50.69;94138.94;4198750;28;20044;-65
2022/09/16 02:21:10;;;;;;;9.57;2.30;;;;;;;21.40;50.60;94138.81;4206827;28;20090;-64
2022/09/16 02:23:19;;;;;;;6.70;2.45;;;;;;;21.37;50.78;94130.47;4211996;28;20067;-64
2022/09/16 02:25:22;;;;;;;5.97;2.25;;;;;;;21.40;50.74;94133.47;4205855;28;20102;-64
2022/09/16 02:27:24;;;;;;;8.60;2.70;;;;;;;21.45;50.60;94132.78;4206227;28;20084;-65
2022/09/16 02:29:31;;;;;;;6.45;2.72;;;;;;;21.51;50.98;94118.50;4200885;28;20053;-66
2022/09/16 02:31:35;;;;;;;11.95;2.40;;;;;;;21.55;50.88;94145.44;4209445;28;20069;-66
2022/09/16 02:33:43;;;;;;;12.88;2.42;;;;;;;21.52;50.40;94162.75;4211232;28;20377;-65
2022/09/16 02:35:47;;;;;;;9.20;2.63;;;;;;;21.47;51.00;94130.69;4201597;28;20508;-65
2022/09/16 02:37:58;;;;;;;9.30;2.83;;;;;;;21.16;51.22;94139.94;4201557;28;20087;-66
2022/09/16 02:40:05;;;;;;;12.77;2.80;;;;;;;21.16;51.44;94145.28;4199361;28;20241;-65
2022/09/16 02:42:07;;;;;;;10.38;2.80;;;;;;;21.26;51.14;94148.13;4200845;28;20040;-64
2022/09/16 02:44:09;;;;;;;10.30;2.95;;;;;;;21.24;51.45;94145.69;4201184;28;20059;-64
2022/09/16 02:46:38;;;;;;;11.68;2.85;;;;;;;21.32;51.28;94157.03;4211906;28;20047;-68
2022/09/16 02:48:49;;;;;;;8.48;2.97;;;;;;;21.40;51.10;94154.78;4208820;28;20523;-66
2022/09/16 02:51:01;;;;;;;9.77;2.45;;;;;;;21.46;51.07;94158.38;4210545;28;20143;-66
2022/09/16 02:53:12;;;;;;;8.15;2.47;;;;;;;21.46;50.72;94153.84;4199150;28;20084;-66
2022/09/16 02:55:20;;;;;;;6.53;2.60;;;;;;;21.43;50.87;94150.88;4190720;28;20044;-65
2022/09/16 02:57:21;;;;;;;8.63;2.78;;;;;;;21.32;51.18;94149.84;4202956;28;20063;-64
2022/09/16 02:59:24;;;;;;;12.68;3.03;;;;;;;21.37;51.12;94160.56;4205269;28;20048;-64
2022/09/16 03:01:27;;;;;;;9.48;2.33;;;;;;;21.43;50.76;94166.84;4206458;28;20066;-64
2022/09/16 03:03:29;;;;;;;;;;;;;;;21.48;50.54;94174.91;4210722;28;20048;-64
2022/09/16 03:05:31;;;;;;;5.88;2.88;;;;;;;21.50;50.55;94169.34;4207330;28;20503;-65
2022/09/16 03:07:32;;;;;;;7.00;2.40;;;;;;;21.51;50.77;94177.13;4205483;28;20440;-66
2022/09/16 03:09:36;;;;;;;10.38;2.72;;;;;;;21.43;51.00;94169.50;4204939;28;20144;-64
2022/09/16 03:11:43;;;;;;;9.07;2.80;;;;;;;21.41;50.96;94176.91;4209367;28;20062;-63
2022/09/16 03:14:25;;;;;;;7.95;2.50;;;;;;;21.43;51.04;94186.31;4211502;28;20076;-65
2022/09/16 03:16:32;;;;;;;9.07;2.88;;;;;;;21.46;50.86;94193.00;4207660;28;20417;-64
2022/09/16 03:18:45;;;;;;;6.65;2.78;;;;;;;21.17;51.56;94187.66;4206896;28;20063;-65
2022/09/16 03:21:15;;;;;;;9.82;3.00;;;;;;;21.31;51.24;94190.03;4207482;28;20062;-66
2022/09/16 03:23:27;;;;;;;4.82;2.50;;;;;;;21.44;51.08;94189.78;4209529;28;20127;-66
2022/09/16 03:25:41;;;;;;;8.07;2.70;;;;;;;21.50;51.50;94196.81;4204998;28;20146;-65
2022/09/16 03:28:11;;;;;;;11.25;2.55;;;;;;;21.48;51.02;94194.38;4209492;28;20048;-64
2022/09/16 03:30:13;;;;;;;8.00;2.63;;;;;;;21.54;50.80;94173.97;4202348;28;20091;-66
2022/09/16 03:32:28;;;;;;;10.35;2.70;;;;;;;21.61;50.40;94177.28;4209870;28;20051;-65
2022/09/16 03:34:39;;;;;;;8.48;2.53;;;;;;;21.54;50.67;94165.16;4201002;28;20064;-66
2022/09/16 03:36:44;;;;;;;10.40;3.10;;;;;;;21.54;50.54;94165.97;4208138;28;20131;-65
2022/09/16 03:38:47;;;;;;;7.03;2.70;;;;;;;21.60;50.69;94175.69;4210046;28;20071;-65
2022/09/16 03:40:49;;;;;;;12.95;2.97;;;;;;;21.67;50.27;94167.53;4207785;28;20076;-64
2022/09/16 03:42:51;;;;;;;12.23;2.80;;;;;;;21.73;50.11;94153.25;4209061;28;20040;-65
2022/09/16 03:44:56;;;;;;;14.20;3.67;;;;;;;21.56;50.96;94153.22;4211168;28;20134;-65
2022/09/16 03:46:57;;;;;;;11.90;2.97;;;;;;;21.30;51.36;94149.28;4210062;28;20079;-59
2022/09/16 03:48:59;;;;;;;8.75;2.83;;;;;;;21.14;51.94;94139.38;4206262;28;20140;-60
2022/09/16 03:51:01;;;;;;;9.93;2.72;;;;;;;21.09;52.01;94141.94;4207949;28;20094;-58
2022/09/16 03:53:03;;;;;;;10.25;3.50;;;;;;;21.01;52.46;94135.94;4204853;28;20145;-58
2022/09/16 03:55:06;;;;;;;11.50;3.05;;;;;;;21.04;52.61;94145.34;4206697;28;20563;-58
2022/09/16 03:57:08;;;;;;;11.80;3.92;;;;;;;21.08;52.45;94138.47;4202667;28;20443;-56
2022/09/16 03:59:10;;;;;;;8.23;3.08;;;;;;;20.90;53.15;94144.78;4211025;28;20044;-60
2022/09/16 04:01:13;;;;;;;11.43;3.58;;;;;;;20.73;53.42;94160.69;4205043;28;20076;-58
2022/09/16 04:03:14;;;;;;;12.02;3.33;;;;;;;20.49;54.17;94177.72;4197044;28;20049;-60
2022/09/16 04:05:16;;;;;;;12.85;3.55;;;;;;;20.59;53.97;94183.28;4202179;28;20653;-60
2022/09/16 04:07:18;;;;;;;15.50;3.30;;;;;;;20.72;53.91;94193.69;4209610;28;20047;-60
2022/09/16 04:09:19;;;;;;;14.52;3.38;;;;;;;20.88;53.32;94194.00;4210445;28;20544;-58
2022/09/16 04:11:21;;;;;;;14.25;3.50;;;;;;;21.00;52.92;94200.09;4209910;28;20075;-59
2022/09/16 04:13:23;;;;;;;10.10;3.33;;;;;;;21.11;52.71;94195.78;4211760;28;20503;-60
2022/09/16 04:15:24;;;;;;;8.27;3.38;;;;;;;21.18;52.59;94194.59;4209499;28;20528;-60
2022/09/16 04:17:26;;;;;;;11.90;3.00;;;;;;;21.24;52.65;94206.97;4206854;28;20415;-58
2022/09/16 04:19:28;;;;;;;11.05;3.25;;;;;;;21.27;52.29;94203.84;4207306;28;20101;-62
2022/09/16 04:21:30;;;;;;;15.98;3.40;;;;;;;21.28;52.05;94204.63;4208185;28;20135;-60
2022/09/16 04:23:31;;;;;;;9.27;3.40;;;;;;;21.31;52.26;94211.34;4209228;28;20559;-59
2022/09/16 04:25:33;;;;;;;7.70;2.95;;;;;;;21.33;51.79;94218.03;4205923;28;20048;-58
2022/09/16 04:27:35;;;;;;;9.70;3.58;;;;;;;21.38;52.12;94222.66;4208532;28;20211;-61
2022/09/16 04:29:37;;;;;;;12.57;3.40;;;;;;;21.44;51.89;94216.41;4210182;28;20067;-58
2022/09/16 04:31:39;;;;;;;13.52;3.53;;;;;;;21.51;51.60;94217.09;4208198;28;20464;-61
2022/09/16 04:33:41;;;;;;;21.50;3.95;;;;;;;21.57;51.39;94207.31;4211185;28;20548;-59
2022/09/16 04:35:42;;;;;;;16.00;4.00;;;;;;;21.64;51.09;94210.66;4196544;28;20076;-65
2022/09/16 04:37:45;;;;;;;16.25;4.32;;;;;;;21.57;51.20;94205.47;4211799;28;20052;-66
2022/09/16 04:39:46;;;;;;;16.70;4.05;;;;;;;21.55;51.90;94207.56;4206365;28;20052;-65
2022/09/16 04:41:48;;;;;;;13.85;3.75;;;;;;;21.52;51.72;94207.25;4209122;28;20047;-68
2022/09/16 04:43:51;;;;;;;13.32;3.80;;;;;;;21.44;51.64;94208.41;4206696;28;20075;-66
2022/09/16 04:45:53;;;;;;;18.52;4.53;;;;;;;21.44;51.89;94211.09;4203023;28;20049;-66
2022/09/16 04:47:56;;;;;;;16.15;4.55;;;;;;;21.51;51.78;94214.44;4205752;28;20093;-66
2022/09/16 04:49:58;;;;;;;9.20;3.30;;;;;;;21.58;51.49;94214.28;4209868;28;20579;-66
2022/09/16 04:52:00;;;;;;;11.02;3.72;;;;;;;21.60;51.61;94213.00;4208752;28;20123;-67
2022/09/16 04:54:01;;;;;;;12.05;3.90;;;;;;;21.55;51.75;94228.88;4210116;28;20576;-65
2022/09/16 04:56:27;;;;;;;12.77;4.07;;;;;;;21.46;51.26;94227.66;4207562;28;20197;-65
2022/09/16 04:58:28;;;;;;;9.82;3.20;;;;;;;21.52;51.38;94228.56;4207506;28;20175;-64
2022/09/16 05:00:30;;;;;;;13.43;3.60;;;;;;;21.61;51.35;94219.94;4209814;28;20052;-65
2022/09/16 05:02:32;;;;;;;16.05;4.18;;;;;;;21.74;51.05;94215.34;4210268;28;20048;-66
2022/09/16 05:04:34;;;;;;;15.77;4.10;;;;;;;21.85;51.30;94214.47;4207467;28;20130;-67
2022/09/16 05:06:38;;;;;;;12.73;3.80;;;;;;;21.93;50.86;94211.41;4210438;28;20059;-66
2022/09/16 05:08:40;;;;;;;11.15;3.78;;;;;;;22.00;51.00;94220.06;4211605;28;20088;-66
2022/09/16 05:10:41;;;;;;;14.00;4.15;;;;;;;22.08;50.57;94210.84;4208310;28;20489;-66
2022/09/16 05:12:43;;;;;;;14.10;3.80;;;;;;;22.16;49.84;94196.31;4211627;28;20491;-66
2022/09/16 05:14:49;;;;;;;14.80;4.25;;;;;;;22.27;49.91;94206.94;4211250;28;20457;-67
2022/09/16 05:16:51;;;;;;;14.25;4.50;;;;;;;22.37;49.61;94213.47;4210973;28;20130;-68
2022/09/16 05:18:55;;;;;;;14.00;3.55;;;;;;;22.47;49.01;94209.06;4206840;28;20388;-67
2022/09/16 05:21:01;;;;;;;12.13;3.83;;;;;;;22.55;48.87;94205.19;4210932;28;20634;-69
2022/09/16 05:23:03;;;;;;;19.92;4.03;;;;;;;22.62;48.50;94197.00;4200338;28;20124;-69
2022/09/16 05:25:06;;;;;;;16.52;4.15;;;;;;;22.71;48.63;94187.50;4207960;28;20052;-70
2022/09/16 05:27:08;;;;;;;13.00;4.05;;;;;;;22.78;48.37;94185.50;4211374;28;20115;-67
2022/09/16 05:29:12;;;;;;;10.25;3.53;;;;;;;22.84;48.11;94187.19;4210750;28;20079;-66
2022/09/16 05:31:16;;;;;;;15.60;4.38;;;;;;;22.85;48.69;94196.00;4210129;28;20507;-67
2022/09/16 05:33:17;;;;;;;21.40;5.47;;;;;;;22.87;49.12;94193.88;4210747;28;20079;-67
2022/09/16 05:35:19;;;;;;;14.30;4.65;;;;;;;22.81;48.90;94184.97;4210970;28;20554;-66
2022/09/16 05:37:21;;;;;;;17.00;4.97;;;;;;;22.69;48.19;94193.13;4209955;28;20048;-67
2022/09/16 05:39:23;;;;;;;16.80;4.50;;;;;;;22.69;48.60;94179.78;4210284;28;20131;-64
2022/09/16 05:41:26;;;;;;;19.70;5.00;;;;;;;22.75;48.08;94182.50;4206414;28;20052;-66
2022/09/16 05:43:28;;;;;;;13.05;4.28;;;;;;;22.85;48.34;94185.31;4209674;28;20055;-66
2022/09/16 05:45:30;;;;;;;17.45;4.47;;;;;;;22.98;48.76;94174.25;4198451;28;20078;-70
2022/09/16 05:47:33;;;;;;;13.25;4.20;;;;;;;23.09;49.01;94177.88;4211284;28;20051;-69
2022/09/16 05:49:35;;;;;;;18.90;4.70;;;;;;;23.17;48.30;94174.78;4210915;28;20560;-66
2022/09/16 05:51:39;;;;;;;20.63;5.00;;;;;;;23.26;47.95;94178.59;4210476;28;20055;-66
2022/09/16 05:53:41;;;;;;;18.67;4.97;;;;;;;23.36;47.77;94182.44;4210965;28;20050;-68
2022/09/16 05:55:42;;;;;;;17.10;4.40;;;;;;;23.44;47.53;94190.00;4209500;28;20132;-64
2022/09/16 05:57:45;;;;;;;11.30;3.70;;;;;;;23.55;47.17;94188.25;4203107;28;20460;-66
2022/09/16 05:59:46;;;;;;;10.88;3.33;;;;;;;23.62;45.77;94188.88;4214329;28;20130;-64
2022/09/16 06:01:48;;;;;;;9.30;2.78;;;;;;;23.68;44.77;94179.81;4213943;28;20058;-62
2022/09/16 06:03:50;;;;;;;12.05;3.13;;;;;;;23.74;44.31;94180.69;4214014;28;20044;-65
2022/09/16 06:05:59;;;;;;;14.07;2.73;;;;;;;23.82;44.27;94186.41;4212512;28;20098;-67
2022/09/16 06:08:01;;;;;;;15.52;2.92;;;;;;;23.90;43.98;94185.16;4206434;28;20076;-66
2022/09/16 06:10:03;;;;;;;13.30;2.60;;;;;;;24.00;43.52;94184.41;4206739;28;20079;-66
2022/09/16 06:12:05;;;;;;;8.45;2.38;;;;;;;24.04;43.50;94183.63;4212931;28;20134;-67
2022/09/16 06:14:07;;;;;;;11.25;2.83;;;;;;;24.11;43.17;94186.94;4213430;28;20077;-67
2022/09/16 06:16:09;;;;;;;7.18;2.55;;;;;;;24.15;42.81;94184.53;4213449;28;20276;-65
2022/09/16 06:18:14;;;;;;;12.88;2.80;;;;;;;24.17;42.75;94187.75;4202123;28;20142;-69
2022/09/16 06:20:16;;;;;;;10.55;2.42;;;;;;;24.19;42.25;94180.28;4211118;28;20420;-67
2022/09/16 06:22:17;;;;;;;7.85;2.55;;;;;;;24.23;41.87;94177.91;4213440;28;20042;-69
2022/09/16 06:24:20;;;;;;;8.15;2.00;;;;;;;24.17;42.12;94170.91;4213169;28;20049;-67
2022/09/16 06:26:23;;;;;;;9.90;3.13;;;;;;;24.19;42.15;94180.28;4211403;28;20131;-67
2022/09/16 06:28:25;;;;;;;9.82;2.78;;;;;;;24.21;42.96;94167.44;4210942;28;20072;-68
2022/09/16 06:30:27;;;;;;;13.93;3.13;;;;;;;24.25;42.58;94171.22;4213313;28;20078;-68
2022/09/16 06:32:32;;;;;;;10.13;2.70;;;;;;;24.28;42.70;94169.91;4213627;28;20130;-66
2022/09/16 06:34:33;;;;;;;6.95;2.50;;;;;;;24.36;42.42;94176.66;4206960;28;20132;-59
2022/09/16 06:36:37;;;;;;;7.50;2.58;;;;;;;24.42;42.45;94176.44;4200064;28;20055;-60
2022/09/16 06:38:45;;;;;;;15.45;2.65;;;;;;;24.42;41.94;94175.63;4213155;28;20052;-62
2022/09/16 06:40:48;;;;;;;11.68;3.17;;;;;;;24.49;41.95;94184.25;4210576;28;20064;-58
2022/09/16 06:42:53;;;;;;;9.75;2.80;;;;;;;24.58;41.14;94185.38;4213505;28;20067;-58
2022/09/16 06:45:02;;;;;;;10.23;2.70;;;;;;;24.66;41.02;94181.41;4196592;28;20511;-58
2022/09/16 06:47:04;;;;;;;8.32;2.83;;;;;;;24.76;40.89;94192.19;4211872;28;20480;-58
2022/09/16 06:49:06;;;;;;;15.52;3.03;;;;;;;24.86;40.61;94196.78;4212340;28;20126;-58
2022/09/16 06:51:37;;;;;;;8.18;2.33;;;;;;;24.96;40.45;94190.69;4211572;28;20127;-59
2022/09/16 06:53:39;;;;;;;9.52;2.95;;;;;;;25.05;41.16;94189.09;4185640;28;20689;-60
2022/09/16 06:55:41;;;;;;;7.82;2.80;;;;;;;25.14;40.46;94187.53;4206356;28;20105;-59
2022/09/16 06:57:42;;;;;;;8.60;2.53;;;;;;;25.24;40.28;94187.59;4211656;28;20405;-59
2022/09/16 06:59:45;;;;;;;8.68;2.85;;;;;;;25.28;39.63;94182.53;4209410;28;20051;-59
2022/09/16 07:01:46;;;;;;;9.68;3.40;;;;;;;25.34;39.59;94189.53;4212380;28;20048;-59
2022/09/16 07:03:50;;;;;;;14.70;3.10;;;;;;;25.18;39.03;94191.31;4199904;28;20330;-60
2022/09/16 07:06:00;;;;;;;19.13;3.08;;;;;;;25.10;39.48;94192.63;4196154;28;20079;-61
2022/09/16 07:08:02;;;;;;;12.88;3.60;;;;;;;24.98;39.67;94181.31;4203357;28;20048;-63
2022/09/16 07:10:06;;;;;;;8.38;3.03;;;;;;;25.07;39.82;94189.66;4199518;28;20083;-61
2022/09/16 07:12:07;;;;;;;9.82;3.05;;;;;;;25.18;39.85;94187.81;4211588;28;20079;-60
2022/09/16 07:14:09;;;;;;;7.32;2.95;;;;;;;25.22;39.81;94189.75;4196976;28;20056;-61
2022/09/16 07:16:14;;;;;;;11.65;3.10;;;;;;;25.05;39.99;94191.78;4203867;28;20092;-62
2022/09/16 07:18:15;;;;;;;13.02;5.22;;;;;;;24.95;40.55;94189.84;4211437;28;20119;-61
2022/09/16 07:20:17;;;;;;;11.23;4.43;;;;;;;24.88;40.75;94186.63;4209229;28;20157;-60
2022/09/16 07:22:19;;;;;;;13.68;2.92;;;;;;;24.69;41.14;94186.25;4197313;28;20135;-65
2022/09/16 07:24:20;;;;;;;10.25;3.75;;;;;;;24.60;41.33;94177.09;4205054;28;20128;-67
2022/09/16 07:26:27;;;;;;;11.57;3.35;;;;;;;24.52;41.17;94181.88;4198224;28;20615;-69
2022/09/16 07:28:30;;;;;;;16.00;5.80;;;;;;;24.63;41.39;94184.59;4196685;28;20572;-66
2022/09/16 07:30:33;;;;;;;17.45;6.03;;;;;;;24.60;41.56;94177.91;4195905;28;20091;-68
2022/09/16 07:32:35;;;;;;;12.65;3.85;;;;;;;24.82;41.06;94187.66;4203199;28;20091;-67
2022/09/16 07:34:36;;;;;;;12.20;5.65;;;;;;;24.99;40.70;94187.47;4199854;28;20086;-68
2022/09/16 07:36:41;;;;;;;22.40;7.60;;;;;;;24.70;41.17;94190.56;4196642;28;20051;-67
2022/09/16 07:38:43;;;;;;;17.25;5.20;;;;;;;24.77;41.51;94182.28;4196453;28;20056;-65
2022/09/16 07:40:44;;;;;;;15.23;4.00;;;;;;;24.93;41.81;94168.69;4204248;28;20044;-66
2022/09/16 07:42:46;;;;;;;12.55;3.55;;;;;;;25.17;41.48;94165.56;4212283;28;20524;-64
2022/09/16 07:44:48;;;;;;;10.00;2.67;;;;;;;25.44;40.74;94148.50;4208824;28;20492;-67
2022/09/16 07:46:50;;;;;;;8.27;2.67;;;;;;;25.68;40.27;94149.63;4209680;28;20076;-67
2022/09/16 07:48:53;;;;;;;11.27;4.28;;;;;;;25.72;39.66;94149.88;4211524;28;20155;-68
2022/09/16 07:51:06;;;;;;;14.50;3.42;;;;;;;25.65;39.87;94150.16;4210273;28;20048;-67
2022/09/16 07:53:08;;;;;;;12.10;2.90;;;;;;;25.66;39.81;94151.78;4211053;28;20516;-68
2022/09/16 07:55:10;;;;;;;9.50;2.88;;;;;;;25.85;40.07;94156.59;4198598;28;20420;-67
2022/09/16 07:57:12;;;;;;;10.93;3.17;;;;;;;25.63;39.33;94157.66;4209506;28;20044;-67
2022/09/16 07:59:16;;;;;;;11.32;2.67;;;;;;;25.61;39.37;94149.06;4209647;28;20075;-64
2022/09/16 08:01:20;;;;;;;12.25;3.28;;;;;;;25.71;39.50;94150.97;4215580;28;20063;-67
2022/09/16 08:03:22;;;;;;;9.90;3.25;;;;;;;25.83;39.27;94154.19;4211467;28;20051;-65
2022/09/16 08:05:23;;;;;;;12.30;3.90;;;;;;;25.84;39.53;94142.41;4210569;28;20488;-67
2022/09/16 08:07:25;;;;;;;15.55;4.07;;;;;;;25.98;40.13;94139.19;4210726;28;20131;-67
2022/09/16 08:09:27;;;;;;;17.48;3.45;;;;;;;25.82;39.95;94149.09;4211212;28;20080;-68
2022/09/16 08:11:49;;;;;;;7.28;2.85;;;;;;;25.27;40.14;94146.84;4211507;28;20048;-68
2022/09/16 08:13:50;;;;;;;12.82;3.00;;;;;;;25.25;40.45;94142.84;4210650;28;20142;-67
2022/09/16 08:15:53;;;;;;;12.73;3.78;;;;;;;25.32;40.85;94127.31;4211572;28;20118;-67
2022/09/16 08:17:54;;;;;;;12.10;3.50;;;;;;;25.64;40.34;94132.47;4210807;28;20131;-68
2022/09/16 08:19:56;;;;;;;12.70;3.30;;;;;;;25.86;39.58;94136.78;4211601;28;20117;-66
2022/09/16 08:21:58;;;;;;;11.30;3.30;;;;;;;25.81;38.98;94131.38;4210131;28;20072;-67
2022/09/16 08:23:59;;;;;;;10.65;3.00;;;;;;;25.97;39.27;94118.81;4211259;28;20083;-67
2022/09/16 08:26:02;;;;;;;15.25;3.13;;;;;;;26.05;39.20;94127.13;4209549;28;20138;-67
2022/09/16 08:28:03;;;;;;;9.65;2.85;;;;;;;25.79;39.70;94126.31;4211114;28;20059;-65
2022/09/16 08:30:05;;;;;;;10.93;2.90;;;;;;;25.50;39.76;94128.69;4209229;28;20040;-66
2022/09/16 08:32:07;;;;;;;8.30;2.90;;;;;;;25.57;40.35;94126.53;4195721;28;20404;-67
2022/09/16 08:34:09;;;;;;;11.25;3.30;;;;;;;25.65;39.91;94122.53;4194886;28;20087;-68
2022/09/16 08:36:13;;;;;;;9.85;3.08;;;;;;;25.79;39.98;94130.84;4208066;28;20149;-69
2022/09/16 08:38:15;;;;;;;9.57;3.05;;;;;;;26.03;39.78;94117.72;4195065;28;20135;-71
2022/09/16 08:40:20;;;;;;;8.88;3.10;;;;;;;26.21;39.06;94114.50;4198115;28;20098;-69
2022/09/16 08:42:35;;;;;;;15.85;3.50;;;;;;;26.36;39.29;94114.47;4201971;28;20056;-69
2022/09/16 08:45:14;;;;;;;11.65;2.70;;;;;;;26.45;38.77;94111.22;4205295;28;20122;-62
2022/09/16 08:47:43;;;;;;;8.40;3.15;;;;;;;26.43;38.50;94111.47;4202739;28;20047;-64
2022/09/16 08:49:46;;;;;;;15.13;3.30;;;;;;;26.30;38.46;94112.06;4198298;28;20084;-61
2022/09/16 08:51:48;;;;;;;12.57;2.90;;;;;;;26.29;38.80;94105.09;4209137;28;20087;-60
2022/09/16 08:53:58;;;;;;;9.80;3.20;;;;;;;26.28;38.93;94109.63;4207296;28;20771;-63
2022/09/16 08:56:04;;;;;;;14.13;3.78;;;;;;;26.29;39.21;94099.72;4209166;28;20393;-60
2022/09/16 08:58:18;;;;;;;9.13;3.08;;;;;;;26.35;38.80;94104.00;4211172;28;20044;-61
2022/09/16 09:00:20;;;;;;;17.88;3.20;;;;;;;26.43;38.86;94108.81;4210103;28;20148;-60
2022/09/16 09:02:42;;;;;;;8.65;3.15;;;;;;;26.51;38.80;94110.13;4214137;28;20087;-61
2022/09/16 09:04:45;;;;;;;11.45;3.17;;;;;;;26.59;38.52;94108.78;4215552;28;20040;-59
2022/09/16 09:07:22;;;;;;;8.57;3.03;;;;;;;26.62;39.04;94106.38;4212384;28;20075;-61
2022/09/16 09:10:05;;;;;;;13.27;3.00;;;;;;;26.46;38.38;94108.28;4209369;28;20124;-61
2022/09/16 09:12:23;;;;;;;12.30;3.13;;;;;;;26.38;38.80;94124.94;4209080;28;20093;-61
2022/09/16 09:14:44;;;;;;;13.32;2.97;;;;;;;26.15;39.34;94118.25;4210850;28;20051;-62
2022/09/16 09:17:16;;;;;;;14.50;4.25;;;;;;;26.13;39.55;94115.81;4211236;28;20083;-63
2022/09/16 09:19:20;;;;;;;14.60;3.50;;;;;;;25.98;39.89;94110.47;4193543;28;20067;-60
2022/09/16 09:21:49;;;;;;;17.27;3.20;;;;;;;26.07;40.21;94116.09;4198870;28;20152;-61
2022/09/16 09:24:17;;;;;;;14.35;3.30;;;;;;;26.10;39.73;94113.69;4199133;28;20044;-68
2022/09/16 09:26:21;;;;;;;14.15;3.70;;;;;;;26.15;39.76;94107.50;4197091;28;20299;-66
2022/09/16 09:28:57;;;;;;;12.98;3.20;;;;;;;26.21;39.23;94108.31;4209110;28;20145;-67
2022/09/16 09:31:30;;;;;;;15.05;3.20;;;;;;;26.09;39.76;94101.38;4210793;28;20051;-69
2022/09/16 09:33:53;;;;;;;18.48;3.83;;;;;;;26.15;39.67;94112.88;4202443;28;20044;-67
2022/09/16 09:35:55;;;;;;;12.65;4.10;;;;;;;26.17;39.99;94112.63;4212984;28;20044;-67
2022/09/16 09:38:00;;;;;;;11.52;3.28;;;;;;;26.20;39.80;94112.06;4211539;28;20124;-68
2022/09/16 09:40:23;;;;;;;13.85;3.72;;;;;;;26.31;39.61;94111.00;4199847;28;20113;-68
2022/09/16 09:42:31;;;;;;;11.55;3.35;;;;;;;26.24;39.61;94118.50;4205134;28;20743;-67
2022/09/16 09:44:46;;;;;;;12.25;3.80;;;;;;;26.23;39.54;94116.91;4223053;28;20479;-69
2022/09/16 09:46:53;;;;;;;12.63;3.60;;;;;;;26.19;40.15;94123.91;4196838;28;20046;-67
2022/09/16 09:49:10;;;;;;;7.60;2.88;;;;;;;26.15;40.23;94121.72;4205116;28;20084;-68
2022/09/16 09:51:26;;;;;;;13.00;3.88;;;;;;;26.05;40.21;94132.50;4200713;28;20080;-67
2022/09/16 09:53:32;;;;;;;18.00;3.65;;;;;;;25.97;41.00;94129.56;4198755;28;20049;-67